sensor_id;sensor_type;location;lat;lon;timestamp;P1;durP1;ratioP1;P2;durP2;ratioP2
31126;SDS011;17775;57.948;12.514;2023-12-22T00:00:57;1.50;;;0.90;;
31126;SDS011;17775;57.948;12.514;2023-12-22T00:03:23;1.90;;;1.20;;
31126;SDS011;17775;57.948;12.514;2023-12-22T00:05:50;1.77;;;1.02;;
31126;SDS011;17775;57.948;12.514;2023-12-22T00:08:16;2.00;;;1.13;;
31126;SDS011;17775;57.948;12.514;2023-12-22T00:10:43;1.55;;;0.90;;
31126;SDS011;17775;57.948;12.514;2023-12-22T00:13:09;2.03;;;1.13;;
31126;SDS011;17775;57.948;12.514;2023-12-22T00:15:35;1.63;;;0.88;;
31126;SDS011;17775;57.948;12.514;2023-12-22T00:18:02;2.00;;;1.20;;
31126;SDS011;17775;57.948;12.514;2023-12-22T00:20:29;1.58;;;0.90;;
31126;SDS011;17775;57.948;12.514;2023-12-22T00:22:55;1.70;;;1.00;;
31126;SDS011;17775;57.948;12.514;2023-12-22T00:25:22;2.45;;;1.10;;
31126;SDS011;17775;57.948;12.514;2023-12-22T00:27:48;2.58;;;1.20;;
31126;SDS011;17775;57.948;12.514;2023-12-22T00:30:15;1.98;;;1.20;;
31126;SDS011;17775;57.948;12.514;2023-12-22T00:32:42;2.13;;;1.10;;
31126;SDS011;17775;57.948;12.514;2023-12-22T00:35:09;2.45;;;1.33;;
31126;SDS011;17775;57.948;12.514;2023-12-22T00:37:35;1.83;;;1.05;;
31126;SDS011;17775;57.948;12.514;2023-12-22T00:40:02;1.83;;;1.00;;
31126;SDS011;17775;57.948;12.514;2023-12-22T00:42:31;1.58;;;0.85;;
31126;SDS011;17775;57.948;12.514;2023-12-22T00:44:58;1.00;;;0.70;;
31126;SDS011;17775;57.948;12.514;2023-12-22T00:47:24;1.20;;;0.90;;
31126;SDS011;17775;57.948;12.514;2023-12-22T00:49:51;1.83;;;0.85;;
31126;SDS011;17775;57.948;12.514;2023-12-22T00:52:17;1.42;;;0.80;;
31126;SDS011;17775;57.948;12.514;2023-12-22T00:54:44;1.05;;;0.80;;
31126;SDS011;17775;57.948;12.514;2023-12-22T00:57:10;1.42;;;0.82;;
31126;SDS011;17775;57.948;12.514;2023-12-22T00:59:37;1.50;;;1.00;;
31126;SDS011;17775;57.948;12.514;2023-12-22T01:02:04;1.83;;;1.00;;
31126;SDS011;17775;57.948;12.514;2023-12-22T01:04:31;1.10;;;0.70;;
31126;SDS011;17775;57.948;12.514;2023-12-22T01:07:00;0.88;;;0.52;;
31126;SDS011;17775;57.948;12.514;2023-12-22T01:09:26;0.70;;;0.50;;
31126;SDS011;17775;57.948;12.514;2023-12-22T01:11:53;1.77;;;0.90;;
31126;SDS011;17775;57.948;12.514;2023-12-22T01:14:19;1.00;;;0.60;;
31126;SDS011;17775;57.948;12.514;2023-12-22T01:16:47;1.48;;;0.80;;
31126;SDS011;17775;57.948;12.514;2023-12-22T01:19:13;1.17;;;0.70;;
31126;SDS011;17775;57.948;12.514;2023-12-22T01:21:43;1.13;;;0.70;;
31126;SDS011;17775;57.948;12.514;2023-12-22T01:24:09;0.98;;;0.63;;
31126;SDS011;17775;57.948;12.514;2023-12-22T01:26:36;1.08;;;0.50;;
31126;SDS011;17775;57.948;12.514;2023-12-22T01:29:02;1.75;;;0.82;;
31126;SDS011;17775;57.948;12.514;2023-12-22T01:31:29;0.90;;;0.52;;
31126;SDS011;17775;57.948;12.514;2023-12-22T01:33:55;0.95;;;0.70;;
31126;SDS011;17775;57.948;12.514;2023-12-22T01:36:22;1.23;;;0.68;;
31126;SDS011;17775;57.948;12.514;2023-12-22T01:38:48;1.08;;;0.70;;
31126;SDS011;17775;57.948;12.514;2023-12-22T01:41:14;1.27;;;0.77;;
31126;SDS011;17775;57.948;12.514;2023-12-22T01:43:41;0.88;;;0.55;;
31126;SDS011;17775;57.948;12.514;2023-12-22T01:46:08;1.15;;;0.60;;
31126;SDS011;17775;57.948;12.514;2023-12-22T01:48:35;1.60;;;0.90;;
31126;SDS011;17775;57.948;12.514;2023-12-22T01:51:02;1.20;;;0.70;;
31126;SDS011;17775;57.948;12.514;2023-12-22T01:53:30;1.50;;;0.77;;
31126;SDS011;17775;57.948;12.514;2023-12-22T01:55:57;2.15;;;0.82;;
31126;SDS011;17775;57.948;12.514;2023-12-22T01:58:24;1.00;;;0.70;;
31126;SDS011;17775;57.948;12.514;2023-12-22T02:00:52;1.35;;;0.77;;
31126;SDS011;17775;57.948;12.514;2023-12-22T02:03:19;1.67;;;1.00;;
31126;SDS011;17775;57.948;12.514;2023-12-22T02:05:45;1.30;;;0.70;;
31126;SDS011;17775;57.948;12.514;2023-12-22T02:08:12;1.17;;;0.70;;
31126;SDS011;17775;57.948;12.514;2023-12-22T02:10:38;0.93;;;0.60;;
31126;SDS011;17775;57.948;12.514;2023-12-22T02:13:05;0.95;;;0.60;;
31126;SDS011;17775;57.948;12.514;2023-12-22T02:15:32;1.15;;;0.77;;
31126;SDS011;17775;57.948;12.514;2023-12-22T02:18:02;0.90;;;0.70;;
31126;SDS011;17775;57.948;12.514;2023-12-22T02:20:29;2.03;;;0.90;;
31126;SDS011;17775;57.948;12.514;2023-12-22T02:22:56;1.80;;;0.73;;
31126;SDS011;17775;57.948;12.514;2023-12-22T02:25:23;1.05;;;0.65;;
31126;SDS011;17775;57.948;12.514;2023-12-22T02:27:50;1.20;;;0.68;;
31126;SDS011;17775;57.948;12.514;2023-12-22T02:30:21;1.55;;;0.75;;
31126;SDS011;17775;57.948;12.514;2023-12-22T02:32:56;0.95;;;0.55;;
31126;SDS011;17775;57.948;12.514;2023-12-22T02:35:25;1.33;;;0.75;;
31126;SDS011;17775;57.948;12.514;2023-12-22T02:37:52;1.13;;;0.80;;
31126;SDS011;17775;57.948;12.514;2023-12-22T02:40:19;0.93;;;0.65;;
31126;SDS011;17775;57.948;12.514;2023-12-22T02:42:46;1.50;;;1.05;;
31126;SDS011;17775;57.948;12.514;2023-12-22T02:45:17;1.45;;;0.85;;
31126;SDS011;17775;57.948;12.514;2023-12-22T02:47:44;1.80;;;1.00;;
31126;SDS011;17775;57.948;12.514;2023-12-22T02:50:14;1.52;;;0.98;;
31126;SDS011;17775;57.948;12.514;2023-12-22T02:52:41;1.20;;;0.70;;
31126;SDS011;17775;57.948;12.514;2023-12-22T02:55:08;2.30;;;0.80;;
31126;SDS011;17775;57.948;12.514;2023-12-22T02:57:34;0.55;;;0.50;;
31126;SDS011;17775;57.948;12.514;2023-12-22T03:00:03;1.40;;;0.77;;
31126;SDS011;17775;57.948;12.514;2023-12-22T03:02:31;1.23;;;0.70;;
31126;SDS011;17775;57.948;12.514;2023-12-22T03:04:58;2.00;;;0.90;;
31126;SDS011;17775;57.948;12.514;2023-12-22T03:07:24;1.67;;;0.80;;
31126;SDS011;17775;57.948;12.514;2023-12-22T03:09:51;1.20;;;0.60;;
31126;SDS011;17775;57.948;12.514;2023-12-22T03:12:17;1.27;;;0.65;;
31126;SDS011;17775;57.948;12.514;2023-12-22T03:14:44;1.20;;;0.60;;
31126;SDS011;17775;57.948;12.514;2023-12-22T03:17:10;1.13;;;0.60;;
31126;SDS011;17775;57.948;12.514;2023-12-22T03:19:37;1.23;;;0.80;;
31126;SDS011;17775;57.948;12.514;2023-12-22T03:22:04;1.50;;;0.70;;
31126;SDS011;17775;57.948;12.514;2023-12-22T03:24:30;1.38;;;0.70;;
31126;SDS011;17775;57.948;12.514;2023-12-22T03:26:56;1.05;;;0.68;;
31126;SDS011;17775;57.948;12.514;2023-12-22T03:29:23;1.20;;;0.60;;
31126;SDS011;17775;57.948;12.514;2023-12-22T03:31:49;0.75;;;0.60;;
31126;SDS011;17775;57.948;12.514;2023-12-22T03:34:16;1.00;;;0.50;;
31126;SDS011;17775;57.948;12.514;2023-12-22T03:36:42;1.05;;;0.60;;
31126;SDS011;17775;57.948;12.514;2023-12-22T03:39:12;0.70;;;0.60;;
31126;SDS011;17775;57.948;12.514;2023-12-22T03:41:38;1.35;;;0.75;;
31126;SDS011;17775;57.948;12.514;2023-12-22T03:44:05;1.73;;;0.68;;
31126;SDS011;17775;57.948;12.514;2023-12-22T03:46:31;1.40;;;0.75;;
31126;SDS011;17775;57.948;12.514;2023-12-22T03:48:57;1.27;;;0.65;;
31126;SDS011;17775;57.948;12.514;2023-12-22T03:51:24;1.00;;;0.57;;
31126;SDS011;17775;57.948;12.514;2023-12-22T03:53:50;0.50;;;0.50;;
31126;SDS011;17775;57.948;12.514;2023-12-22T03:56:17;1.38;;;0.95;;
31126;SDS011;17775;57.948;12.514;2023-12-22T03:58:46;0.65;;;0.40;;
31126;SDS011;17775;57.948;12.514;2023-12-22T04:01:16;1.17;;;0.57;;
31126;SDS011;17775;57.948;12.514;2023-12-22T04:03:42;0.85;;;0.52;;
31126;SDS011;17775;57.948;12.514;2023-12-22T04:06:09;1.10;;;0.70;;
31126;SDS011;17775;57.948;12.514;2023-12-22T04:08:35;1.23;;;0.65;;
31126;SDS011;17775;57.948;12.514;2023-12-22T04:11:02;1.25;;;0.70;;
31126;SDS011;17775;57.948;12.514;2023-12-22T04:13:28;1.15;;;0.70;;
31126;SDS011;17775;57.948;12.514;2023-12-22T04:15:57;1.00;;;0.52;;
31126;SDS011;17775;57.948;12.514;2023-12-22T04:18:24;1.10;;;0.50;;
31126;SDS011;17775;57.948;12.514;2023-12-22T04:20:50;1.42;;;0.75;;
31126;SDS011;17775;57.948;12.514;2023-12-22T04:23:20;1.17;;;0.70;;
31126;SDS011;17775;57.948;12.514;2023-12-22T04:25:46;0.80;;;0.45;;
31126;SDS011;17775;57.948;12.514;2023-12-22T04:28:13;1.63;;;1.10;;
31126;SDS011;17775;57.948;12.514;2023-12-22T04:30:40;1.63;;;0.93;;
31126;SDS011;17775;57.948;12.514;2023-12-22T04:33:08;1.52;;;0.93;;
31126;SDS011;17775;57.948;12.514;2023-12-22T04:35:35;1.58;;;0.80;;
31126;SDS011;17775;57.948;12.514;2023-12-22T04:38:02;0.90;;;0.55;;
31126;SDS011;17775;57.948;12.514;2023-12-22T04:40:28;1.05;;;0.55;;
31126;SDS011;17775;57.948;12.514;2023-12-22T04:42:56;1.85;;;1.17;;
31126;SDS011;17775;57.948;12.514;2023-12-22T04:45:22;1.67;;;0.77;;
31126;SDS011;17775;57.948;12.514;2023-12-22T04:47:49;1.27;;;0.80;;
31126;SDS011;17775;57.948;12.514;2023-12-22T04:50:15;1.80;;;0.80;;
31126;SDS011;17775;57.948;12.514;2023-12-22T04:52:42;1.38;;;0.75;;
31126;SDS011;17775;57.948;12.514;2023-12-22T04:55:08;1.38;;;0.70;;
31126;SDS011;17775;57.948;12.514;2023-12-22T04:57:35;1.45;;;0.77;;
31126;SDS011;17775;57.948;12.514;2023-12-22T05:00:01;1.90;;;1.00;;
31126;SDS011;17775;57.948;12.514;2023-12-22T05:02:28;0.90;;;0.68;;
31126;SDS011;17775;57.948;12.514;2023-12-22T05:04:55;1.70;;;1.00;;
31126;SDS011;17775;57.948;12.514;2023-12-22T05:07:22;1.83;;;0.80;;
31126;SDS011;17775;57.948;12.514;2023-12-22T05:09:48;1.67;;;0.90;;
31126;SDS011;17775;57.948;12.514;2023-12-22T05:12:14;1.48;;;0.70;;
31126;SDS011;17775;57.948;12.514;2023-12-22T05:14:41;1.85;;;1.23;;
31126;SDS011;17775;57.948;12.514;2023-12-22T05:17:07;1.85;;;0.95;;
31126;SDS011;17775;57.948;12.514;2023-12-22T05:19:34;1.30;;;0.77;;
31126;SDS011;17775;57.948;12.514;2023-12-22T05:22:00;2.00;;;1.00;;
31126;SDS011;17775;57.948;12.514;2023-12-22T05:24:27;2.30;;;0.85;;
31126;SDS011;17775;57.948;12.514;2023-12-22T05:26:53;1.67;;;0.90;;
31126;SDS011;17775;57.948;12.514;2023-12-22T05:29:20;1.70;;;0.82;;
31126;SDS011;17775;57.948;12.514;2023-12-22T05:31:46;1.65;;;0.73;;
31126;SDS011;17775;57.948;12.514;2023-12-22T05:34:13;1.77;;;0.70;;
31126;SDS011;17775;57.948;12.514;2023-12-22T05:36:39;2.28;;;1.00;;
31126;SDS011;17775;57.948;12.514;2023-12-22T05:39:05;1.75;;;1.10;;
31126;SDS011;17775;57.948;12.514;2023-12-22T05:41:35;1.10;;;0.57;;
31126;SDS011;17775;57.948;12.514;2023-12-22T05:44:05;2.25;;;0.82;;
31126;SDS011;17775;57.948;12.514;2023-12-22T05:46:38;1.58;;;0.93;;
31126;SDS011;17775;57.948;12.514;2023-12-22T05:49:05;2.17;;;1.00;;
31126;SDS011;17775;57.948;12.514;2023-12-22T05:51:38;2.30;;;1.02;;
31126;SDS011;17775;57.948;12.514;2023-12-22T05:54:05;1.83;;;0.95;;
31126;SDS011;17775;57.948;12.514;2023-12-22T05:56:33;1.15;;;0.70;;
31126;SDS011;17775;57.948;12.514;2023-12-22T05:59:00;1.35;;;0.98;;
31126;SDS011;17775;57.948;12.514;2023-12-22T06:01:26;2.05;;;1.10;;
31126;SDS011;17775;57.948;12.514;2023-12-22T06:03:53;2.08;;;1.08;;
31126;SDS011;17775;57.948;12.514;2023-12-22T06:06:20;3.58;;;0.70;;
31126;SDS011;17775;57.948;12.514;2023-12-22T06:08:46;1.15;;;0.63;;
31126;SDS011;17775;57.948;12.514;2023-12-22T06:11:13;2.33;;;1.00;;
31126;SDS011;17775;57.948;12.514;2023-12-22T06:13:40;1.98;;;1.00;;
31126;SDS011;17775;57.948;12.514;2023-12-22T06:16:06;2.08;;;1.02;;
31126;SDS011;17775;57.948;12.514;2023-12-22T06:18:33;4.00;;;1.45;;
31126;SDS011;17775;57.948;12.514;2023-12-22T06:20:59;3.83;;;1.80;;
31126;SDS011;17775;57.948;12.514;2023-12-22T06:23:25;3.58;;;1.60;;
31126;SDS011;17775;57.948;12.514;2023-12-22T06:25:52;5.60;;;2.47;;
31126;SDS011;17775;57.948;12.514;2023-12-22T06:28:18;2.55;;;1.23;;
31126;SDS011;17775;57.948;12.514;2023-12-22T06:30:45;3.28;;;1.23;;
31126;SDS011;17775;57.948;12.514;2023-12-22T06:33:13;2.40;;;1.30;;
31126;SDS011;17775;57.948;12.514;2023-12-22T06:35:39;3.40;;;1.40;;
31126;SDS011;17775;57.948;12.514;2023-12-22T06:38:09;2.63;;;1.30;;
31126;SDS011;17775;57.948;12.514;2023-12-22T06:40:37;2.65;;;1.20;;
31126;SDS011;17775;57.948;12.514;2023-12-22T06:43:04;2.38;;;1.02;;
31126;SDS011;17775;57.948;12.514;2023-12-22T06:45:31;2.58;;;1.40;;
31126;SDS011;17775;57.948;12.514;2023-12-22T06:47:57;2.80;;;1.25;;
31126;SDS011;17775;57.948;12.514;2023-12-22T06:50:24;2.60;;;1.23;;
31126;SDS011;17775;57.948;12.514;2023-12-22T06:52:50;2.47;;;1.08;;
31126;SDS011;17775;57.948;12.514;2023-12-22T06:55:20;2.45;;;1.00;;
31126;SDS011;17775;57.948;12.514;2023-12-22T06:57:47;3.60;;;1.23;;
31126;SDS011;17775;57.948;12.514;2023-12-22T07:00:14;2.97;;;1.20;;
31126;SDS011;17775;57.948;12.514;2023-12-22T07:02:41;4.03;;;1.77;;
31126;SDS011;17775;57.948;12.514;2023-12-22T07:07:53;2.65;;;1.13;;
31126;SDS011;17775;57.948;12.514;2023-12-22T07:10:20;1.80;;;0.80;;
31126;SDS011;17775;57.948;12.514;2023-12-22T07:12:46;4.00;;;1.65;;
31126;SDS011;17775;57.948;12.514;2023-12-22T07:15:13;3.13;;;1.40;;
31126;SDS011;17775;57.948;12.514;2023-12-22T07:17:39;3.47;;;1.50;;
31126;SDS011;17775;57.948;12.514;2023-12-22T07:20:06;2.72;;;1.40;;
31126;SDS011;17775;57.948;12.514;2023-12-22T07:22:32;4.07;;;1.70;;
31126;SDS011;17775;57.948;12.514;2023-12-22T07:24:59;3.05;;;1.73;;
31126;SDS011;17775;57.948;12.514;2023-12-22T07:27:25;3.80;;;1.60;;
31126;SDS011;17775;57.948;12.514;2023-12-22T07:29:53;3.10;;;1.50;;
31126;SDS011;17775;57.948;12.514;2023-12-22T07:32:20;3.45;;;1.48;;
31126;SDS011;17775;57.948;12.514;2023-12-22T07:34:46;2.83;;;1.15;;
31126;SDS011;17775;57.948;12.514;2023-12-22T07:37:13;2.85;;;1.45;;
31126;SDS011;17775;57.948;12.514;2023-12-22T07:39:39;2.22;;;1.25;;
31126;SDS011;17775;57.948;12.514;2023-12-22T07:42:08;3.28;;;1.35;;
31126;SDS011;17775;57.948;12.514;2023-12-22T07:44:34;4.10;;;1.60;;
31126;SDS011;17775;57.948;12.514;2023-12-22T07:47:01;3.78;;;1.40;;
31126;SDS011;17775;57.948;12.514;2023-12-22T07:49:29;4.15;;;1.58;;
31126;SDS011;17775;57.948;12.514;2023-12-22T07:51:57;2.95;;;1.52;;
31126;SDS011;17775;57.948;12.514;2023-12-22T07:54:37;3.10;;;1.30;;
31126;SDS011;17775;57.948;12.514;2023-12-22T07:57:05;2.75;;;1.20;;
31126;SDS011;17775;57.948;12.514;2023-12-22T07:59:31;2.70;;;1.35;;
31126;SDS011;17775;57.948;12.514;2023-12-22T08:01:58;3.50;;;1.40;;
31126;SDS011;17775;57.948;12.514;2023-12-22T08:04:25;4.10;;;1.35;;
31126;SDS011;17775;57.948;12.514;2023-12-22T08:06:51;2.97;;;1.30;;
31126;SDS011;17775;57.948;12.514;2023-12-22T08:09:20;2.78;;;1.10;;
31126;SDS011;17775;57.948;12.514;2023-12-22T08:11:48;2.85;;;1.30;;
31126;SDS011;17775;57.948;12.514;2023-12-22T08:14:19;3.95;;;1.77;;
31126;SDS011;17775;57.948;12.514;2023-12-22T08:16:45;2.22;;;1.10;;
31126;SDS011;17775;57.948;12.514;2023-12-22T08:19:12;2.30;;;1.10;;
31126;SDS011;17775;57.948;12.514;2023-12-22T08:21:39;1.88;;;0.82;;
31126;SDS011;17775;57.948;12.514;2023-12-22T08:24:11;3.17;;;1.23;;
31126;SDS011;17775;57.948;12.514;2023-12-22T08:26:48;2.80;;;1.10;;
31126;SDS011;17775;57.948;12.514;2023-12-22T08:29:14;2.05;;;0.85;;
31126;SDS011;17775;57.948;12.514;2023-12-22T08:31:42;1.88;;;1.10;;
31126;SDS011;17775;57.948;12.514;2023-12-22T08:34:10;3.30;;;1.38;;
31126;SDS011;17775;57.948;12.514;2023-12-22T08:36:36;2.05;;;0.93;;
31126;SDS011;17775;57.948;12.514;2023-12-22T08:39:03;2.05;;;0.93;;
31126;SDS011;17775;57.948;12.514;2023-12-22T08:41:31;2.83;;;1.10;;
31126;SDS011;17775;57.948;12.514;2023-12-22T08:44:03;3.20;;;1.35;;
31126;SDS011;17775;57.948;12.514;2023-12-22T08:46:30;2.33;;;1.15;;
31126;SDS011;17775;57.948;12.514;2023-12-22T08:48:57;3.30;;;1.20;;
31126;SDS011;17775;57.948;12.514;2023-12-22T08:51:26;1.90;;;0.90;;
31126;SDS011;17775;57.948;12.514;2023-12-22T08:53:53;2.97;;;1.27;;
31126;SDS011;17775;57.948;12.514;2023-12-22T08:56:21;2.60;;;1.20;;
31126;SDS011;17775;57.948;12.514;2023-12-22T08:58:48;2.47;;;0.90;;
31126;SDS011;17775;57.948;12.514;2023-12-22T09:01:18;3.90;;;1.60;;
31126;SDS011;17775;57.948;12.514;2023-12-22T09:03:47;2.65;;;1.10;;
31126;SDS011;17775;57.948;12.514;2023-12-22T09:06:20;2.92;;;1.25;;
31126;SDS011;17775;57.948;12.514;2023-12-22T09:08:48;2.97;;;1.20;;
31126;SDS011;17775;57.948;12.514;2023-12-22T09:11:16;3.45;;;1.42;;
31126;SDS011;17775;57.948;12.514;2023-12-22T09:13:43;3.28;;;1.40;;
31126;SDS011;17775;57.948;12.514;2023-12-22T09:16:10;3.17;;;1.30;;
31126;SDS011;17775;57.948;12.514;2023-12-22T09:18:36;3.72;;;1.20;;
31126;SDS011;17775;57.948;12.514;2023-12-22T09:21:03;4.50;;;1.30;;
31126;SDS011;17775;57.948;12.514;2023-12-22T09:23:29;3.97;;;1.23;;
31126;SDS011;17775;57.948;12.514;2023-12-22T09:25:56;2.42;;;0.98;;
31126;SDS011;17775;57.948;12.514;2023-12-22T09:28:22;2.42;;;0.90;;
31126;SDS011;17775;57.948;12.514;2023-12-22T09:30:49;2.13;;;0.88;;
31126;SDS011;17775;57.948;12.514;2023-12-22T09:33:15;1.70;;;0.90;;
31126;SDS011;17775;57.948;12.514;2023-12-22T09:35:42;1.48;;;0.75;;
31126;SDS011;17775;57.948;12.514;2023-12-22T09:38:09;2.13;;;0.98;;
31126;SDS011;17775;57.948;12.514;2023-12-22T09:40:36;3.55;;;1.55;;
31126;SDS011;17775;57.948;12.514;2023-12-22T09:43:03;3.75;;;1.20;;
31126;SDS011;17775;57.948;12.514;2023-12-22T09:45:32;2.67;;;0.98;;
31126;SDS011;17775;57.948;12.514;2023-12-22T09:48:00;2.25;;;1.00;;
31126;SDS011;17775;57.948;12.514;2023-12-22T09:50:27;2.30;;;1.17;;
31126;SDS011;17775;57.948;12.514;2023-12-22T09:52:53;3.30;;;1.40;;
31126;SDS011;17775;57.948;12.514;2023-12-22T09:55:23;3.45;;;1.50;;
31126;SDS011;17775;57.948;12.514;2023-12-22T10:00:17;2.00;;;0.90;;
31126;SDS011;17775;57.948;12.514;2023-12-22T10:02:44;2.28;;;1.05;;
31126;SDS011;17775;57.948;12.514;2023-12-22T10:05:14;2.50;;;0.88;;
31126;SDS011;17775;57.948;12.514;2023-12-22T10:07:41;2.72;;;1.00;;
31126;SDS011;17775;57.948;12.514;2023-12-22T10:10:09;2.22;;;1.13;;
31126;SDS011;17775;57.948;12.514;2023-12-22T10:12:36;2.38;;;1.08;;
31126;SDS011;17775;57.948;12.514;2023-12-22T10:15:04;3.00;;;1.30;;
31126;SDS011;17775;57.948;12.514;2023-12-22T10:17:31;3.28;;;1.00;;
31126;SDS011;17775;57.948;12.514;2023-12-22T10:19:58;3.88;;;1.30;;
31126;SDS011;17775;57.948;12.514;2023-12-22T10:22:25;3.33;;;1.17;;
31126;SDS011;17775;57.948;12.514;2023-12-22T10:24:52;3.05;;;1.30;;
31126;SDS011;17775;57.948;12.514;2023-12-22T10:27:19;3.25;;;1.30;;
31126;SDS011;17775;57.948;12.514;2023-12-22T10:29:49;3.85;;;1.38;;
31126;SDS011;17775;57.948;12.514;2023-12-22T10:32:16;2.05;;;1.10;;
31126;SDS011;17775;57.948;12.514;2023-12-22T10:34:43;4.78;;;2.28;;
31126;SDS011;17775;57.948;12.514;2023-12-22T10:37:09;4.55;;;2.65;;
31126;SDS011;17775;57.948;12.514;2023-12-22T10:39:36;5.72;;;2.50;;
31126;SDS011;17775;57.948;12.514;2023-12-22T10:42:03;4.15;;;2.10;;
31126;SDS011;17775;57.948;12.514;2023-12-22T10:44:30;3.13;;;1.58;;
31126;SDS011;17775;57.948;12.514;2023-12-22T10:46:57;3.47;;;1.30;;
31126;SDS011;17775;57.948;12.514;2023-12-22T10:49:24;5.00;;;1.85;;
31126;SDS011;17775;57.948;12.514;2023-12-22T10:51:51;3.88;;;1.42;;
31126;SDS011;17775;57.948;12.514;2023-12-22T10:54:18;3.15;;;1.70;;
31126;SDS011;17775;57.948;12.514;2023-12-22T10:56:45;3.55;;;1.92;;
31126;SDS011;17775;57.948;12.514;2023-12-22T10:59:11;4.07;;;1.85;;
31126;SDS011;17775;57.948;12.514;2023-12-22T11:01:38;3.75;;;1.42;;
31126;SDS011;17775;57.948;12.514;2023-12-22T11:04:06;4.30;;;1.52;;
31126;SDS011;17775;57.948;12.514;2023-12-22T11:06:36;4.13;;;1.75;;
31126;SDS011;17775;57.948;12.514;2023-12-22T11:09:06;3.58;;;1.52;;
31126;SDS011;17775;57.948;12.514;2023-12-22T11:11:33;2.90;;;1.30;;
31126;SDS011;17775;57.948;12.514;2023-12-22T11:14:00;3.72;;;1.75;;
31126;SDS011;17775;57.948;12.514;2023-12-22T11:16:30;3.50;;;1.25;;
31126;SDS011;17775;57.948;12.514;2023-12-22T11:18:56;2.67;;;1.40;;
31126;SDS011;17775;57.948;12.514;2023-12-22T11:21:24;3.65;;;1.40;;
31126;SDS011;17775;57.948;12.514;2023-12-22T11:23:52;3.83;;;1.33;;
31126;SDS011;17775;57.948;12.514;2023-12-22T11:26:19;4.47;;;1.70;;
31126;SDS011;17775;57.948;12.514;2023-12-22T11:28:46;3.28;;;1.20;;
31126;SDS011;17775;57.948;12.514;2023-12-22T11:31:13;3.17;;;1.25;;
31126;SDS011;17775;57.948;12.514;2023-12-22T11:33:40;2.65;;;1.58;;
31126;SDS011;17775;57.948;12.514;2023-12-22T11:36:24;3.40;;;1.15;;
31126;SDS011;17775;57.948;12.514;2023-12-22T11:38:54;1.73;;;0.90;;
31126;SDS011;17775;57.948;12.514;2023-12-22T11:41:23;2.25;;;0.80;;
31126;SDS011;17775;57.948;12.514;2023-12-22T11:43:50;2.05;;;0.80;;
31126;SDS011;17775;57.948;12.514;2023-12-22T11:46:17;2.30;;;1.00;;
31126;SDS011;17775;57.948;12.514;2023-12-22T11:48:47;2.97;;;1.08;;
31126;SDS011;17775;57.948;12.514;2023-12-22T11:51:16;3.90;;;1.25;;
31126;SDS011;17775;57.948;12.514;2023-12-22T11:53:43;4.13;;;1.15;;
31126;SDS011;17775;57.948;12.514;2023-12-22T11:56:10;4.13;;;1.48;;
31126;SDS011;17775;57.948;12.514;2023-12-22T11:58:40;5.38;;;1.52;;
31126;SDS011;17775;57.948;12.514;2023-12-22T12:01:08;4.03;;;1.60;;
31126;SDS011;17775;57.948;12.514;2023-12-22T12:03:40;2.97;;;1.10;;
31126;SDS011;17775;57.948;12.514;2023-12-22T12:08:39;2.22;;;1.00;;
31126;SDS011;17775;57.948;12.514;2023-12-22T12:11:06;3.00;;;1.33;;
31126;SDS011;17775;57.948;12.514;2023-12-22T12:13:33;2.70;;;1.00;;
31126;SDS011;17775;57.948;12.514;2023-12-22T12:16:02;1.77;;;1.00;;
31126;SDS011;17775;57.948;12.514;2023-12-22T12:18:29;3.10;;;1.00;;
31126;SDS011;17775;57.948;12.514;2023-12-22T12:20:56;2.45;;;0.98;;
31126;SDS011;17775;57.948;12.514;2023-12-22T12:23:23;3.30;;;0.95;;
31126;SDS011;17775;57.948;12.514;2023-12-22T12:25:50;2.38;;;0.98;;
31126;SDS011;17775;57.948;12.514;2023-12-22T12:28:16;2.50;;;1.08;;
31126;SDS011;17775;57.948;12.514;2023-12-22T12:30:45;1.88;;;0.73;;
31126;SDS011;17775;57.948;12.514;2023-12-22T12:33:13;1.48;;;0.70;;
31126;SDS011;17775;57.948;12.514;2023-12-22T12:35:40;1.40;;;0.80;;
31126;SDS011;17775;57.948;12.514;2023-12-22T12:38:11;2.28;;;0.85;;
31126;SDS011;17775;57.948;12.514;2023-12-22T12:40:39;2.58;;;1.00;;
31126;SDS011;17775;57.948;12.514;2023-12-22T12:43:06;1.90;;;0.80;;
31126;SDS011;17775;57.948;12.514;2023-12-22T12:45:33;2.38;;;0.95;;
31126;SDS011;17775;57.948;12.514;2023-12-22T12:48:01;2.13;;;0.75;;
31126;SDS011;17775;57.948;12.514;2023-12-22T12:50:30;2.05;;;0.90;;
31126;SDS011;17775;57.948;12.514;2023-12-22T12:53:00;1.75;;;0.63;;
31126;SDS011;17775;57.948;12.514;2023-12-22T12:55:27;1.70;;;0.77;;
31126;SDS011;17775;57.948;12.514;2023-12-22T12:57:54;2.05;;;0.80;;
31126;SDS011;17775;57.948;12.514;2023-12-22T13:00:24;2.38;;;1.05;;
31126;SDS011;17775;57.948;12.514;2023-12-22T13:02:53;3.22;;;0.98;;
31126;SDS011;17775;57.948;12.514;2023-12-22T13:05:25;2.20;;;1.10;;
31126;SDS011;17775;57.948;12.514;2023-12-22T13:07:52;2.83;;;1.02;;
31126;SDS011;17775;57.948;12.514;2023-12-22T13:10:22;3.28;;;1.00;;
31126;SDS011;17775;57.948;12.514;2023-12-22T13:12:49;3.60;;;1.27;;
31126;SDS011;17775;57.948;12.514;2023-12-22T13:15:16;1.98;;;1.00;;
31126;SDS011;17775;57.948;12.514;2023-12-22T13:17:43;3.88;;;1.40;;
31126;SDS011;17775;57.948;12.514;2023-12-22T13:20:10;3.55;;;1.15;;
31126;SDS011;17775;57.948;12.514;2023-12-22T13:22:37;1.88;;;0.93;;
31126;SDS011;17775;57.948;12.514;2023-12-22T13:25:04;2.83;;;1.10;;
31126;SDS011;17775;57.948;12.514;2023-12-22T13:27:30;3.22;;;1.17;;
31126;SDS011;17775;57.948;12.514;2023-12-22T13:29:57;1.60;;;0.90;;
31126;SDS011;17775;57.948;12.514;2023-12-22T13:32:23;3.33;;;1.10;;
31126;SDS011;17775;57.948;12.514;2023-12-22T13:34:53;3.05;;;1.00;;
31126;SDS011;17775;57.948;12.514;2023-12-22T13:37:20;1.73;;;0.80;;
31126;SDS011;17775;57.948;12.514;2023-12-22T13:39:47;2.40;;;1.00;;
31126;SDS011;17775;57.948;12.514;2023-12-22T13:42:14;2.53;;;1.17;;
31126;SDS011;17775;57.948;12.514;2023-12-22T13:44:42;3.30;;;1.00;;
31126;SDS011;17775;57.948;12.514;2023-12-22T13:47:09;3.13;;;1.13;;
31126;SDS011;17775;57.948;12.514;2023-12-22T13:49:35;1.85;;;0.80;;
31126;SDS011;17775;57.948;12.514;2023-12-22T13:52:02;1.92;;;1.02;;
31126;SDS011;17775;57.948;12.514;2023-12-22T13:54:32;3.20;;;1.48;;
31126;SDS011;17775;57.948;12.514;2023-12-22T13:57:02;3.75;;;1.38;;
31126;SDS011;17775;57.948;12.514;2023-12-22T13:59:32;2.92;;;1.20;;
31126;SDS011;17775;57.948;12.514;2023-12-22T14:02:00;2.22;;;1.20;;
31126;SDS011;17775;57.948;12.514;2023-12-22T14:04:28;4.55;;;1.52;;
31126;SDS011;17775;57.948;12.514;2023-12-22T14:06:55;2.45;;;1.20;;
31126;SDS011;17775;57.948;12.514;2023-12-22T14:09:21;1.92;;;1.10;;
31126;SDS011;17775;57.948;12.514;2023-12-22T14:11:50;2.38;;;1.33;;
31126;SDS011;17775;57.948;12.514;2023-12-22T14:14:30;2.40;;;1.20;;
31126;SDS011;17775;57.948;12.514;2023-12-22T14:16:57;2.60;;;1.17;;
31126;SDS011;17775;57.948;12.514;2023-12-22T14:19:23;2.45;;;1.10;;
31126;SDS011;17775;57.948;12.514;2023-12-22T14:21:50;2.00;;;0.93;;
31126;SDS011;17775;57.948;12.514;2023-12-22T14:24:17;2.25;;;1.08;;
31126;SDS011;17775;57.948;12.514;2023-12-22T14:26:53;2.60;;;1.02;;
31126;SDS011;17775;57.948;12.514;2023-12-22T14:29:20;1.33;;;0.80;;
31126;SDS011;17775;57.948;12.514;2023-12-22T14:31:49;1.77;;;0.80;;
31126;SDS011;17775;57.948;12.514;2023-12-22T14:34:19;2.33;;;0.90;;
31126;SDS011;17775;57.948;12.514;2023-12-22T14:36:45;1.73;;;0.80;;
31126;SDS011;17775;57.948;12.514;2023-12-22T14:39:12;3.03;;;1.00;;
31126;SDS011;17775;57.948;12.514;2023-12-22T14:41:39;3.35;;;0.90;;